Time;durP1;ratioP1;P1;durP2;ratioP2;P2;SDS_P1;SDS_P2;PMS_P1;PMS_P2;Temp;Humidity;BMP_temperature;BMP_pressure;BME280_temperature;BME280_humidity;BME280_pressure;Samples;Min_cycle;Max_cycle;Signal;HPM_P1;HPM_P2
2021/12/28 00:01:34;;;;;;;;;;;9.60;99.90;;;9.70;100.00;99046.56;4929105;29;19953;-79
2021/12/28 00:04:05;;;;;;;;;;;10.10;99.90;;;9.64;100.00;99042.44;4923285;29;19931;-79
2021/12/28 00:06:32;;;;;;;;;;;9.70;99.90;;;9.68;100.00;99032.66;4940302;29;19937;-78
2021/12/28 00:09:00;;;;;;;;;;;9.70;99.90;;;9.69;100.00;99026.47;4924888;29;19930;-78
2021/12/28 00:11:27;;;;;;;;;;;9.70;99.90;;;9.72;100.00;99018.47;4924819;29;19930;-78
2021/12/28 00:14:00;;;;;;;;;;;10.30;99.90;;;9.71;100.00;99011.50;4922667;29;19935;-78
2021/12/28 00:19:16;;;;;;;;;;;9.70;99.90;;;9.65;100.00;98994.22;4926790;29;19958;-78
2021/12/28 00:21:43;;;;;;;;;;;9.60;99.90;;;9.62;100.00;98997.88;4909814;29;19999;-78
2021/12/28 00:24:10;;;;;;;;;;;9.50;99.90;;;9.59;100.00;98999.75;4907842;29;19933;-78
2021/12/28 00:26:37;;;;;;;;;;;11.50;99.90;;;9.50;100.00;99001.84;4924372;29;20034;-79
2021/12/28 00:29:04;;;;;;;;;;;9.40;99.90;;;9.43;100.00;99000.41;4940399;29;20303;-80
2021/12/28 00:31:33;;;;;;;;;;;10.50;99.90;;;9.35;100.00;99003.34;4924051;29;19938;-78
2021/12/28 00:34:00;;;;;;;;;;;9.30;99.90;;;9.34;100.00;98992.88;4922422;29;20455;-78
2021/12/28 00:36:28;;;;;;;;;;;9.30;99.90;;;9.34;100.00;98990.25;4924246;29;19941;-79
2021/12/28 00:38:56;;;;;;;;;;;9.20;99.90;;;9.29;100.00;98990.47;4924524;29;20030;-78
2021/12/28 00:41:23;;;;;;;;;;;10.50;99.90;;;9.34;100.00;98988.50;4923855;29;19994;-78
2021/12/28 00:43:50;;;;;;;;;;;9.20;99.90;;;9.41;100.00;98996.13;4922649;29;19998;-79
2021/12/28 00:46:16;;;;;;;;;;;9.20;99.90;;;9.40;100.00;98992.66;4924171;29;19931;-78
2021/12/28 00:48:43;;;;;;;;;;;9.20;99.90;;;9.41;100.00;98993.50;4923108;29;19957;-79
2021/12/28 00:51:10;;;;;;;;;;;9.20;99.90;;;9.41;100.00;98994.34;4907486;29;19930;-79
2021/12/28 00:53:37;;;;;;;;;;;9.30;99.90;;;9.47;100.00;98988.00;4922612;29;19930;-79
2021/12/28 00:56:04;;;;;;;;;;;9.30;99.90;;;9.41;100.00;98981.22;4940276;29;19931;-78
2021/12/28 00:58:32;;;;;;;;;;;9.30;99.90;;;9.46;100.00;98981.88;4908516;29;19931;-79
2021/12/28 01:00:59;;;;;;;;;;;9.30;99.90;;;9.45;100.00;98968.84;4924234;29;19938;-78
2021/12/28 01:03:27;;;;;;;;;;;9.30;99.90;;;9.42;100.00;98977.69;4922428;29;19930;-79
2021/12/28 01:05:54;;;;;;;;;;;9.30;99.90;;;9.43;100.00;98975.91;4923489;29;19930;-79
2021/12/28 01:08:21;;;;;;;;;;;9.30;99.90;;;9.44;100.00;98970.59;4924337;29;20368;-79
2021/12/28 01:10:51;;;;;;;;;;;9.30;99.90;;;9.42;100.00;98967.19;4924218;29;19966;-78
2021/12/28 01:13:18;;;;;;;;;;;9.30;99.90;;;9.38;100.00;98964.75;4921139;28;19931;-79
2021/12/28 01:15:45;;;;;;;;;;;9.30;99.90;;;9.38;100.00;98951.63;4923654;29;19938;-78
2021/12/28 01:18:13;;;;;;;;;;;9.30;99.90;;;9.30;100.00;98952.81;4923337;29;19931;-79
2021/12/28 01:20:41;;;;;;;;;;;9.20;99.90;;;9.25;100.00;98956.53;4923229;29;19931;-78
2021/12/28 01:23:09;;;;;;;;;;;11.00;99.90;;;9.18;100.00;98956.75;4922606;29;19934;-78
2021/12/28 01:25:35;;;;;;;;;;;9.10;99.90;;;9.12;100.00;98957.03;4923610;29;19953;-79
2021/12/28 01:28:03;;;;;;;;;;;9.50;99.90;;;9.11;100.00;98960.56;4907315;29;20003;-78
2021/12/28 01:30:31;;;;;;;;;;;9.00;99.90;;;9.05;100.00;98956.41;4922956;29;20041;-78
2021/12/28 01:32:59;;;;;;;;;;;9.00;99.90;;;8.99;100.00;98948.81;4937474;29;20311;-79
2021/12/28 01:35:28;;;;;;;;;;;8.90;99.90;;;8.93;100.00;98947.28;4922970;29;19931;-79
2021/12/28 01:37:56;;;;;;;;;;;9.90;99.90;;;8.89;100.00;98943.06;4931272;29;19931;-79
2021/12/28 01:40:28;;;;;;;;;;;8.90;99.90;;;8.80;100.00;98936.41;4930200;29;19982;-79
2021/12/28 01:43:02;;;;;;;;;;;10.30;99.90;;;8.81;100.00;98932.03;4930366;29;20457;-79
2021/12/28 01:46:01;;;;;;;;;;;8.70;99.90;;;8.72;100.00;98938.50;4921710;28;19973;-79
2021/12/28 01:48:34;;;;;;;;;;;8.90;99.90;;;8.61;100.00;98940.69;4940435;28;19937;-78
2021/12/28 01:51:05;;;;;;;;;;;8.90;99.90;;;8.63;100.00;98938.84;4937199;28;20002;-78
2021/12/28 01:53:33;;;;;;;;;;;8.60;99.90;;;8.62;100.00;98929.28;4922162;29;20305;-78
2021/12/28 01:56:06;;;;;;;;;;;8.50;99.90;;;8.57;100.00;98939.94;4940335;28;20384;-79
2021/12/28 01:58:34;;;;;;;;;;;8.90;99.90;;;8.54;100.00;98939.22;4940136;29;19940;-79
2021/12/28 02:01:01;;;;;;;;;;;8.50;99.90;;;8.54;100.00;98928.72;4954867;29;20292;-78
2021/12/28 02:03:30;;;;;;;;;;;9.30;99.90;;;8.51;100.00;98930.56;4954917;28;19926;-78
2021/12/28 02:05:57;;;;;;;;;;;8.40;99.90;;;8.50;100.00;98922.75;4939434;29;19941;-78
2021/12/28 02:08:24;;;;;;;;;;;8.60;99.90;;;8.42;100.00;98928.25;4923139;28;19941;-78
2021/12/28 02:10:54;;;;;;;;;;;8.40;99.90;;;8.38;100.00;98919.66;4939668;29;20290;-79
2021/12/28 02:13:22;;;;;;;;;;;9.50;99.90;;;8.41;100.00;98923.06;4938479;29;19937;-78
2021/12/28 02:15:50;;;;;;;;;;;8.30;99.90;;;8.44;100.00;98905.44;4923398;29;19930;-78
2021/12/28 02:18:19;;;;;;;;;;;8.40;99.90;;;8.42;100.00;98906.41;4923136;29;19930;-78
2021/12/28 02:20:47;;;;;;;;;;;9.90;99.90;;;8.42;100.00;98902.03;4939572;29;20021;-78
2021/12/28 02:23:14;;;;;;;;;;;8.40;99.90;;;8.39;100.00;98889.06;4939053;29;19934;-79
2021/12/28 02:25:42;;;;;;;;;;;9.30;99.90;;;8.44;100.00;98891.50;4942004;29;19927;-79
2021/12/28 02:28:11;;;;;;;;;;;8.30;99.90;;;8.38;100.00;98880.34;4943812;29;19951;-78
2021/12/28 02:30:40;;;;;;;;;;;8.40;99.90;;;8.36;100.00;98865.59;4943713;29;19926;-81
2021/12/28 02:33:08;;;;;;;;;;;8.30;99.90;;;8.36;100.00;98868.22;4957793;28;19969;-78
2021/12/28 02:35:36;;;;;;;;;;;8.30;99.90;;;8.36;100.00;98863.81;4943080;29;20001;-78
2021/12/28 02:38:04;;;;;;;;;;;8.30;99.90;;;8.35;100.00;98866.47;4942674;29;19930;-78
2021/12/28 02:40:32;;;;;;;;;;;8.30;99.90;;;8.34;100.00;98867.41;4942373;29;20541;-79
2021/12/28 02:43:01;;;;;;;;;;;10.10;99.90;;;8.29;100.00;98856.25;4941781;29;19936;-78
2021/12/28 02:45:30;;;;;;;;;;;8.20;99.90;;;8.23;100.00;98858.22;4926861;29;19937;-78
2021/12/28 02:47:58;;;;;;;;;;;8.50;99.90;;;8.25;100.00;98850.28;4942738;29;19938;-79
2021/12/28 02:50:27;;;;;;;;;;;8.20;99.90;;;8.22;100.00;98851.25;4957497;29;20033;-79
2021/12/28 02:52:55;;;;;;;;;;;9.10;99.90;;;8.16;100.00;98854.09;4957454;28;19931;-78
2021/12/28 02:55:24;;;;;;;;;;;8.20;99.90;;;8.16;100.00;98848.03;4941684;29;19930;-78
2021/12/28 02:58:01;;;;;;;;;;;9.10;99.90;;;8.16;100.00;98851.47;4942215;29;19950;-79
2021/12/28 03:00:34;;;;;;;;;;;8.10;99.90;;;8.18;100.00;98852.28;4927129;29;20029;-78
2021/12/28 03:03:11;;;;;;;;;;;8.00;99.90;;;8.15;100.00;98841.06;4941670;29;20037;-78
2021/12/28 03:05:42;;;;;;;;;;;8.10;99.90;;;8.14;100.00;98840.22;4942576;29;20498;-78
2021/12/28 03:08:10;;;;;;;;;;;8.40;99.90;;;8.10;100.00;98833.38;4926770;29;19974;-79
2021/12/28 03:10:38;;;;;;;;;;;9.10;99.90;;;8.13;100.00;98832.44;4943912;29;19949;-79
2021/12/28 03:13:06;;;;;;;;;;;8.10;99.90;;;8.14;100.00;98836.75;4926787;29;19931;-79
2021/12/28 03:15:33;;;;;;;;;;;8.40;99.90;;;8.12;100.00;98828.94;4943223;29;19971;-78
2021/12/28 03:18:00;;;;;;;;;;;9.80;99.90;;;8.16;100.00;98822.66;4961291;29;19930;-79
2021/12/28 03:20:28;;;;;;;;;;;8.00;99.90;;;8.13;100.00;98825.41;4928938;29;20403;-79
2021/12/28 03:22:55;;;;;;;;;;;8.00;99.90;;;8.11;100.00;98813.28;4959167;28;19941;-80
2021/12/28 03:25:22;;;;;;;;;;;8.00;99.90;;;8.12;100.00;98813.22;4944213;29;19961;-79
2021/12/28 03:27:49;;;;;;;;;;;8.70;99.90;;;8.11;100.00;98803.66;4944015;29;19965;-80
2021/12/28 03:30:17;;;;;;;;;;;8.00;99.90;;;8.13;100.00;98808.84;4944360;29;19930;-80
2021/12/28 03:32:45;;;;;;;;;;;8.00;99.90;;;8.12;100.00;98796.63;4955331;28;19930;-80
2021/12/28 03:35:14;;;;;;;;;;;8.10;99.90;;;8.10;100.00;98804.56;4963134;28;19980;-79
2021/12/28 03:37:41;;;;;;;;;;;8.00;99.90;;;8.16;100.00;98801.69;4979520;28;19969;-80
2021/12/28 03:40:11;;;;;;;;;;;8.00;99.90;;;8.18;100.00;98799.03;4947563;28;19969;-80
2021/12/28 03:42:38;;;;;;;;;;;8.10;99.90;;;8.18;100.00;98799.88;4978975;28;20335;-80
2021/12/28 03:45:06;;;;;;;;;;;8.30;99.90;;;8.17;100.00;98792.94;4962787;28;20450;-80
2021/12/28 03:47:34;;;;;;;;;;;8.10;99.90;;;8.18;100.00;98791.16;4963489;28;20484;-81
2021/12/28 03:50:02;;;;;;;;;;;9.30;99.90;;;8.20;100.00;98789.34;4979326;28;19926;-79
2021/12/28 03:52:31;;;;;;;;;;;10.30;99.90;;;8.21;100.00;98797.16;4978220;28;19926;-79
2021/12/28 03:54:58;;;;;;;;;;;8.80;99.90;;;8.23;100.00;98787.47;4979306;28;19925;-80
2021/12/28 03:57:25;;;;;;;;;;;6.50;99.90;;;8.26;100.00;98785.63;4964127;28;19933;-80
2021/12/28 03:59:52;;;;;;;;;;;8.10;99.90;;;8.30;100.00;98774.09;4953820;29;19931;-79
2021/12/28 04:02:19;;;;;;;;;;;8.10;99.90;;;8.32;100.00;98781.00;4959095;28;19998;-80
2021/12/28 04:04:46;;;;;;;;;;;8.20;99.90;;;8.30;100.00;98772.34;4943179;29;20018;-79
2021/12/28 04:07:18;;;;;;;;;;;8.20;99.90;;;8.28;100.00;98768.06;4943281;29;19930;-79
2021/12/28 04:12:21;;;;;;;;;;;9.30;99.90;;;8.34;100.00;98768.69;4944170;28;19931;-79
2021/12/28 04:14:48;;;;;;;;;;;8.20;99.90;;;8.35;100.00;98769.53;4926896;28;19998;-79
2021/12/28 04:17:15;;;;;;;;;;;8.20;99.90;;;8.34;100.00;98759.94;4958988;29;19933;-80
2021/12/28 04:19:42;;;;;;;;;;;8.20;99.90;;;8.37;100.00;98760.69;4926403;28;19937;-79
2021/12/28 04:22:09;;;;;;;;;;;8.20;99.90;;;8.35;100.00;98749.41;4957824;28;19941;-80
2021/12/28 04:24:36;;;;;;;;;;;8.80;99.90;;;8.38;100.00;98741.44;4925033;29;19945;-80
2021/12/28 04:27:21;;;;;;;;;;;8.60;99.90;;;8.37;100.00;98744.97;4958928;28;19953;-79
2021/12/28 04:29:49;;;;;;;;;;;8.40;99.90;;;8.37;100.00;98744.97;4943062;29;19931;-80
2021/12/28 04:32:16;;;;;;;;;;;9.60;99.90;;;8.34;100.00;98733.75;4958967;28;20017;-80
2021/12/28 04:34:43;;;;;;;;;;;8.00;99.90;;;8.37;100.00;98736.25;4958722;29;19970;-80
2021/12/28 04:37:10;;;;;;;;;;;9.10;99.90;;;8.35;100.00;98732.81;4942964;29;19941;-80
2021/12/28 04:39:37;;;;;;;;;;;9.30;99.90;;;8.36;100.00;98731.94;4959305;29;19969;-79
2021/12/28 04:42:05;;;;;;;;;;;8.30;99.90;;;8.35;100.00;98741.56;4943444;28;19941;-80
2021/12/28 04:44:32;;;;;;;;;;;8.30;99.90;;;8.38;100.00;98730.94;4925724;29;19931;-79
2021/12/28 04:46:59;;;;;;;;;;;8.30;99.90;;;8.38;100.00;98735.34;4928172;29;20010;-80
2021/12/28 04:49:28;;;;;;;;;;;8.30;99.90;;;8.42;100.00;98736.06;4942527;29;19927;-79
2021/12/28 04:51:55;;;;;;;;;;;8.60;99.90;;;8.43;100.00;98727.28;4942954;28;19935;-80
2021/12/28 04:54:22;;;;;;;;;;;8.30;99.90;;;8.38;100.00;98730.09;4941248;29;19937;-79
2021/12/28 04:56:49;;;;;;;;;;;10.80;99.90;;;8.40;100.00;98735.25;4957624;29;19937;-79
2021/12/28 04:59:17;;;;;;;;;;;8.30;99.90;;;8.44;100.00;98739.50;4942250;29;19933;-80
2021/12/28 05:01:45;;;;;;;;;;;10.20;99.90;;;8.44;100.00;98742.09;4924343;29;20453;-79
2021/12/28 05:04:12;;;;;;;;;;;8.30;99.90;;;8.46;100.00;98738.50;4957226;28;19930;-80
2021/12/28 05:06:39;;;;;;;;;;;9.50;99.90;;;8.47;100.00;98742.81;4958739;29;19931;-80
2021/12/28 05:09:09;;;;;;;;;;;8.40;99.90;;;8.53;100.00;98738.28;4943123;29;19930;-79
2021/12/28 05:11:37;;;;;;;;;;;10.10;99.90;;;8.49;100.00;98734.91;4942836;29;19942;-79
2021/12/28 05:14:05;;;;;;;;;;;8.80;99.90;;;8.43;100.00;98733.38;4921012;29;19935;-81
2021/12/28 05:16:33;;;;;;;;;;;9.60;99.90;;;8.51;100.00;98733.09;4916147;29;20623;-80
2021/12/28 05:19:05;;;;;;;;;;;7.90;99.90;;;8.50;100.00;98744.50;4930833;28;19931;-80
2021/12/28 05:21:34;;;;;;;;;;;9.10;99.90;;;8.54;100.00;98734.75;4915323;29;19931;-81
2021/12/28 05:24:01;;;;;;;;;;;8.40;99.90;;;8.58;100.00;98733.69;4915467;29;19926;-82
2021/12/28 05:26:28;;;;;;;;;;;8.60;99.90;;;8.50;100.00;98716.50;4917156;29;19927;-80
2021/12/28 05:28:55;;;;;;;;;;;8.90;99.90;;;8.57;100.00;98730.19;4948441;28;19930;-81
2021/12/28 05:31:25;;;;;;;;;;;8.40;99.90;;;8.44;100.00;98718.53;4933709;28;19930;-81
2021/12/28 05:33:53;;;;;;;;;;;9.80;99.90;;;8.44;100.00;98708.03;4949224;28;19985;-82
2021/12/28 05:36:21;;;;;;;;;;;10.10;99.90;;;8.47;100.00;98693.00;4949481;28;19934;-81
2021/12/28 05:38:48;;;;;;;;;;;8.80;99.90;;;8.52;100.00;98698.09;4966167;28;19932;-82
2021/12/28 05:41:15;;;;;;;;;;;8.40;99.90;;;8.53;100.00;98705.03;4949369;28;20379;-80
2021/12/28 05:43:42;;;;;;;;;;;8.50;99.90;;;8.51;100.00;98701.63;4949160;28;19969;-80
2021/12/28 05:46:09;;;;;;;;;;;10.40;99.90;;;8.47;100.00;98689.56;4949850;28;19937;-80
2021/12/28 05:48:36;;;;;;;;;;;9.00;99.90;;;8.44;100.00;98684.44;4933443;28;20607;-82
2021/12/28 05:51:03;;;;;;;;;;;10.00;99.90;;;8.54;100.00;98698.88;4933867;28;20018;-81
2021/12/28 05:53:30;;;;;;;;;;;8.40;99.90;;;8.54;100.00;98701.50;4949669;28;19930;-83
2021/12/28 05:55:57;;;;;;;;;;;9.00;99.90;;;8.57;100.00;98690.03;4950105;28;19930;-80
2021/12/28 05:58:24;;;;;;;;;;;8.50;99.90;;;8.56;100.00;98688.34;4934992;28;20387;-81
2021/12/28 06:00:51;;;;;;;;;;;8.50;99.90;;;8.57;100.00;98684.81;4916094;29;19933;-82
2021/12/28 06:03:18;;;;;;;;;;;9.80;99.90;;;8.57;100.00;98679.56;4915984;29;19965;-81
2021/12/28 06:05:45;;;;;;;;;;;10.00;99.90;;;8.61;100.00;98683.75;4916240;29;19973;-81
2021/12/28 06:08:12;;;;;;;;;;;9.40;99.90;;;8.63;100.00;98682.78;4932039;29;19937;-80
2021/12/28 06:10:57;;;;;;;;;;;10.70;99.90;;;8.61;100.00;98674.13;4935430;29;20565;-83
2021/12/28 06:13:24;;;;;;;;;;;9.10;99.90;;;8.65;100.00;98669.56;4936834;29;20017;-81
2021/12/28 06:15:51;;;;;;;;;;;9.20;99.90;;;8.65;100.00;98673.06;4929881;29;20279;-79
2021/12/28 06:18:18;;;;;;;;;;;8.50;99.90;;;8.62;100.00;98677.56;4945564;29;19930;-81
2021/12/28 06:20:45;;;;;;;;;;;9.90;99.90;;;8.70;100.00;98678.13;4913986;29;19940;-79
2021/12/28 06:23:12;;;;;;;;;;;8.60;99.90;;;8.68;100.00;98668.59;4929261;29;20413;-80
2021/12/28 06:25:40;;;;;;;;;;;9.20;99.90;;;8.61;100.00;98665.38;4913968;29;20328;-80
2021/12/28 06:28:07;;;;;;;;;;;8.60;99.90;;;8.68;100.00;98663.34;4929629;29;19937;-80
2021/12/28 06:30:34;;;;;;;;;;;10.20;99.90;;;8.72;100.00;98663.16;4945466;29;19981;-80
2021/12/28 06:33:02;;;;;;;;;;;8.60;99.90;;;8.69;100.00;98660.69;4929173;29;19931;-82
2021/12/28 06:35:29;;;;;;;;;;;10.30;99.90;;;8.73;100.00;98666.63;4945344;29;19927;-81
2021/12/28 06:37:56;;;;;;;;;;;8.90;99.90;;;8.70;100.00;98648.41;4929789;29;19948;-81
2021/12/28 06:40:23;;;;;;;;;;;10.40;99.90;;;8.73;100.00;98657.00;4929634;29;19945;-81
2021/12/28 06:42:50;;;;;;;;;;;8.60;99.90;;;8.72;100.00;98643.94;4929124;29;19931;-81
2021/12/28 06:45:17;;;;;;;;;;;8.70;99.90;;;8.75;100.00;98649.06;4929239;29;20013;-82
2021/12/28 06:47:45;;;;;;;;;;;7.00;99.90;;;8.74;100.00;98648.22;4929681;29;20370;-80
2021/12/28 06:50:12;;;;;;;;;;;8.80;99.90;;;8.76;100.00;98658.66;4929476;29;19930;-81
2021/12/28 06:52:40;;;;;;;;;;;8.60;99.90;;;8.76;100.00;98650.78;4913242;29;20041;-80
2021/12/28 06:55:08;;;;;;;;;;;8.70;99.90;;;8.72;100.00;98646.56;4945368;29;19938;-81
2021/12/28 06:57:35;;;;;;;;;;;8.60;99.90;;;8.75;100.00;98655.16;4929651;29;20410;-80
2021/12/28 07:00:08;;;;;;;;;;;10.60;99.90;;;8.74;100.00;98640.34;4913949;29;19930;-80
2021/12/28 07:02:36;;;;;;;;;;;8.70;99.90;;;8.78;100.00;98647.16;4913191;29;19988;-80
2021/12/28 07:05:05;;;;;;;;;;;8.70;99.90;;;8.77;100.00;98645.44;4930406;29;19941;-81
2021/12/28 07:07:32;;;;;;;;;;;8.70;99.90;;;8.76;100.00;98643.75;4932655;29;19937;-82
2021/12/28 07:09:59;;;;;;;;;;;10.30;99.90;;;8.69;100.00;98637.09;4916448;29;20309;-81
2021/12/28 07:12:26;;;;;;;;;;;10.30;99.90;;;8.75;100.00;98644.66;4917733;29;19930;-83
2021/12/28 07:14:53;;;;;;;;;;;8.70;99.90;;;8.78;100.00;98641.91;4934883;29;19927;-82
2021/12/28 07:17:20;;;;;;;;;;;8.70;99.90;;;8.76;100.00;98653.41;4934037;29;19926;-83
2021/12/28 07:19:47;;;;;;;;;;;8.70;99.90;;;8.79;100.00;98653.25;4918820;29;19931;-81
2021/12/28 07:22:14;;;;;;;;;;;8.70;99.90;;;8.83;100.00;98641.72;4934138;28;20343;-81
2021/12/28 07:24:41;;;;;;;;;;;8.80;99.90;;;8.82;100.00;98644.38;4931672;29;19933;-81
2021/12/28 07:27:08;;;;;;;;;;;9.50;99.90;;;8.85;100.00;98649.50;4931844;29;20024;-81
2021/12/28 07:29:35;;;;;;;;;;;9.20;99.90;;;8.90;100.00;98640.53;4932331;29;19955;-80
2021/12/28 07:32:04;;;;;;;;;;;8.70;99.90;;;8.88;100.00;98637.09;4913048;29;19931;-80
2021/12/28 07:34:32;;;;;;;;;;;8.80;99.90;;;8.86;100.00;98635.47;4928546;29;19934;-81
2021/12/28 07:36:59;;;;;;;;;;;10.50;99.90;;;8.89;100.00;98640.59;4929076;29;19938;-81
2021/12/28 07:39:26;;;;;;;;;;;9.60;99.90;;;8.89;100.00;98645.81;4928903;29;19942;-81
2021/12/28 07:41:53;;;;;;;;;;;8.80;99.90;;;8.91;100.00;98636.13;4937203;29;19938;-80
2021/12/28 07:44:23;;;;;;;;;;;8.50;99.90;;;8.94;100.00;98649.94;4952589;29;19937;-79
2021/12/28 07:46:50;;;;;;;;;;;10.70;99.90;;;8.98;100.00;98652.44;4944361;29;19930;-80
2021/12/28 07:49:17;;;;;;;;;;;10.40;99.90;;;8.94;100.00;98655.19;4936311;29;19926;-82
2021/12/28 07:51:44;;;;;;;;;;;8.90;99.90;;;8.96;100.00;98670.84;4932853;29;19931;-79
2021/12/28 07:54:11;;;;;;;;;;;10.00;99.90;;;8.89;100.00;98656.31;4917222;29;19926;-82
2021/12/28 07:56:38;;;;;;;;;;;8.90;99.90;;;8.95;100.00;98666.53;4916972;29;19931;-81
2021/12/28 07:59:06;;;;;;;;;;;8.90;99.90;;;8.97;100.00;98669.94;4917338;29;19927;-82
2021/12/28 08:01:34;;;;;;;;;;;8.90;99.90;;;8.97;100.00;98664.69;4933500;29;19931;-83
2021/12/28 08:04:02;;;;;;;;;;;8.90;99.90;;;9.05;100.00;98665.19;4928888;29;20346;-83
2021/12/28 08:06:29;;;;;;;;;;;9.00;99.90;;;9.10;100.00;98669.38;4929838;29;19931;-81
2021/12/28 08:08:56;;;;;;;;;;;9.10;99.90;;;9.19;100.00;98664.56;4895715;28;19931;-80
2021/12/28 08:11:23;;;;;;;;;;;10.60;99.90;;;9.25;100.00;98663.44;4930366;29;20366;-81
2021/12/28 08:13:51;;;;;;;;;;;9.10;99.90;;;9.30;100.00;98666.72;4914273;28;19937;-80
2021/12/28 08:16:17;;;;;;;;;;;9.90;99.90;;;9.32;100.00;98674.50;4898674;28;19930;-80
2021/12/28 08:18:45;;;;;;;;;;;9.80;99.90;;;9.34;100.00;98664.78;4898406;29;19973;-82
2021/12/28 08:21:33;;;;;;;;;;;9.30;99.90;;;9.43;100.00;98664.38;4917073;29;20497;-82
2021/12/28 08:24:00;;;;;;;;;;;11.30;99.90;;;9.47;100.00;98662.47;4913735;28;19930;-81
2021/12/28 08:26:27;;;;;;;;;;;9.30;99.90;;;9.53;100.00;98671.81;4914309;28;20025;-83
2021/12/28 08:28:54;;;;;;;;;;;7.90;99.90;;;9.59;100.00;98666.28;4913947;29;19934;-83
2021/12/28 08:31:25;;;;;;;;;;;9.50;99.90;;;9.68;100.00;98662.34;4899437;29;19930;-81
2021/12/28 08:33:53;;;;;;;;;;;9.60;99.90;;;9.75;100.00;98667.25;4914156;28;19934;-80
2021/12/28 08:36:20;;;;;;;;;;;9.90;99.90;;;9.80;100.00;98669.66;4931559;29;20033;-81
2021/12/28 08:38:47;;;;;;;;;;;9.70;99.90;;;9.81;100.00;98657.34;4930954;29;19962;-81
2021/12/28 08:41:16;;;;;;;;;;;9.80;99.90;;;9.87;100.00;98663.16;4931128;29;19933;-80
2021/12/28 08:43:46;;;;;;;;;;;9.80;99.90;;;9.91;100.00;98664.75;4915939;29;19930;-80
2021/12/28 08:46:14;;;;;;;;;;;9.80;99.90;;;9.93;100.00;98662.88;4931438;29;19937;-81
2021/12/28 08:48:41;;;;;;;;;;;9.90;99.90;;;10.04;100.00;98677.25;4931283;29;19934;-82
2021/12/28 08:51:09;;;;;;;;;;;10.00;99.90;;;10.12;100.00;98675.13;4930608;29;19931;-81
2021/12/28 08:53:35;;;;;;;;;;;12.00;99.90;;;10.20;100.00;98677.38;4930370;29;20386;-81
2021/12/28 08:56:03;;;;;;;;;;;10.00;99.90;;;10.21;100.00;98674.66;4915293;29;19931;-81
2021/12/28 08:58:30;;;;;;;;;;;10.00;99.90;;;10.25;100.00;98683.22;4914755;29;19933;-84
2021/12/28 09:00:57;;;;;;;;;;;9.80;99.90;;;10.26;100.00;98687.56;4930794;29;20438;-82
2021/12/28 09:03:24;;;;;;;;;;;10.20;99.90;;;10.27;100.00;98684.00;4930617;29;20033;-81
2021/12/28 09:05:51;;;;;;;;;;;10.50;99.90;;;10.25;100.00;98674.50;4930924;29;19941;-80
2021/12/28 09:08:19;;;;;;;;;;;10.30;99.90;;;10.23;100.00;98697.41;4931370;29;19949;-80
2021/12/28 09:10:46;;;;;;;;;;;10.30;99.90;;;10.25;100.00;98680.59;4930833;29;20033;-81
2021/12/28 09:13:14;;;;;;;;;;;10.30;99.90;;;10.29;100.00;98676.88;4961799;28;19969;-81
2021/12/28 09:15:42;;;;;;;;;;;10.30;99.90;;;10.38;100.00;98696.63;4946488;28;19992;-81
2021/12/28 09:18:10;;;;;;;;;;;10.30;99.90;;;10.42;100.00;98710.50;4946606;28;20031;-80
2021/12/28 09:20:37;;;;;;;;;;;10.40;99.90;;;10.46;100.00;98701.53;4962350;28;19941;-82
2021/12/28 09:23:10;;;;;;;;;;;10.40;99.90;;;10.41;100.00;98714.91;4961452;28;19980;-81
2021/12/28 09:25:38;;;;;;;;;;;10.40;99.90;;;10.39;100.00;98708.84;4945961;28;19930;-80
2021/12/28 09:28:07;;;;;;;;;;;10.60;99.90;;;10.41;100.00;98712.28;4946283;28;19963;-80
2021/12/28 09:30:35;;;;;;;;;;;10.40;99.90;;;10.38;100.00;98719.44;4957980;28;19931;-82
2021/12/28 09:33:03;;;;;;;;;;;12.00;99.90;;;10.45;100.00;98713.81;4931179;29;19931;-81
2021/12/28 09:35:30;;;;;;;;;;;10.50;99.90;;;10.47;100.00;98726.91;4930712;29;20094;-81
2021/12/28 09:37:57;;;;;;;;;;;10.40;99.90;;;10.42;100.00;98710.50;4915152;29;19930;-80
2021/12/28 09:40:30;;;;;;;;;;;10.50;99.90;;;10.56;100.00;98733.47;4916781;29;19996;-80
2021/12/28 09:42:58;;;;;;;;;;;10.50;99.90;;;10.61;100.00;98729.69;4931006;29;20450;-81
2021/12/28 09:45:25;;;;;;;;;;;10.50;99.90;;;10.67;100.00;98732.94;4931561;29;19933;-82
2021/12/28 09:47:52;;;;;;;;;;;10.80;99.90;;;10.63;100.00;98729.59;4934249;29;20049;-80
2021/12/28 09:50:21;;;;;;;;;;;10.60;99.90;;;10.63;100.00;98732.22;4920022;29;20202;-81
2021/12/28 09:52:49;;;;;;;;;;;10.60;99.90;;;10.63;100.00;98733.09;4930616;29;19926;-81
2021/12/28 09:55:21;;;;;;;;;;;10.60;99.90;;;10.74;100.00;98735.19;4914976;29;20034;-81
2021/12/28 09:57:49;;;;;;;;;;;10.70;99.90;;;10.84;100.00;98743.44;4931538;29;20383;-81
2021/12/28 10:00:17;;;;;;;;;;;10.70;99.90;;;10.85;100.00;98737.25;4960123;28;20546;-81
2021/12/28 10:03:04;;;;;;;;;;;10.80;99.90;;;10.88;100.00;98731.00;4914066;29;20513;-81
2021/12/28 10:05:33;;;;;;;;;;;10.80;99.90;;;10.82;100.00;98731.28;4927639;29;19930;-81
2021/12/28 10:08:02;;;;;;;;;;;12.30;99.90;;;10.97;100.00;98745.44;4912098;29;20037;-82
2021/12/28 10:10:38;;;;;;;;;;;10.90;99.90;;;11.06;100.00;98734.44;4927772;29;20026;-80
2021/12/28 10:13:08;;;;;;;;;;;10.90;99.90;;;11.09;100.00;98760.63;4910797;28;19930;-80
2021/12/28 10:15:40;;;;;;;;;;;11.00;99.90;;;11.16;100.00;98745.31;4927176;29;20021;-82
2021/12/28 10:18:09;;;;;;;;;;;11.00;99.90;;;11.21;100.00;98733.63;4926965;29;20622;-80
2021/12/28 10:20:49;;;;;;;;;;;11.00;99.90;;;11.19;100.00;98734.66;4911774;29;20532;-82
2021/12/28 10:23:25;;;;;;;;;;;11.10;99.90;;;11.26;100.00;98720.22;4927016;29;20021;-81
2021/12/28 10:25:58;;;;;;;;;;;11.20;99.90;;;11.39;100.00;98723.03;4927251;29;20415;-81
2021/12/28 10:28:34;;;;;;;;;;;11.20;99.90;;;11.43;100.00;98729.00;4927834;29;19937;-82
2021/12/28 10:31:27;;;;;;;;;;;11.30;99.90;;;11.52;100.00;98720.63;4927465;29;19997;-81
2021/12/28 10:33:56;;;;;;;;;;;11.30;99.90;;;11.59;100.00;98732.50;4913801;29;20483;-81
2021/12/28 10:36:33;;;;;;;;;;;11.40;99.90;;;11.61;100.00;98737.69;4911378;29;19937;-82
2021/12/28 10:39:02;;;;;;;;;;;11.50;99.90;;;11.61;100.00;98732.44;4927730;29;19958;-81
2021/12/28 10:41:29;;;;;;;;;;;11.50;99.90;;;11.65;100.00;98730.50;4927222;29;20021;-80
2021/12/28 10:43:58;;;;;;;;;;;11.60;99.90;;;11.60;100.00;98726.28;4926770;29;20386;-82
2021/12/28 10:46:25;;;;;;;;;;;11.50;99.90;;;11.63;100.00;98728.78;4927451;29;20407;-81
2021/12/28 10:48:56;;;;;;;;;;;11.60;99.90;;;11.70;100.00;98746.88;4930197;29;19930;-81
2021/12/28 10:51:31;;;;;;;;;;;11.50;99.90;;;11.64;100.00;98750.69;4930626;29;19931;-82
2021/12/28 10:56:46;;;;;;;;;;;11.50;99.90;;;11.65;100.00;98748.94;4930163;29;19927;-82
2021/12/28 10:59:14;;;;;;;;;;;11.50;99.90;;;11.65;100.00;98743.66;4930727;29;20026;-81
2021/12/28 11:01:42;;;;;;;;;;;11.50;99.90;;;11.66;100.00;98743.56;4930078;29;19931;-80
2021/12/28 11:04:12;;;;;;;;;;;11.50;99.90;;;11.65;100.00;98747.13;4930135;29;19984;-80
2021/12/28 11:06:50;;;;;;;;;;;11.60;99.90;;;11.70;100.00;98742.44;4915161;29;19931;-81
2021/12/28 11:09:20;;;;;;;;;;;11.60;99.90;;;11.67;100.00;98742.63;4915472;29;19931;-82
2021/12/28 11:11:50;;;;;;;;;;;11.60;99.90;;;11.68;100.00;98738.22;4930751;29;19981;-82
2021/12/28 11:14:21;;;;;;;;;;;11.60;99.90;;;11.55;100.00;98720.44;4931649;28;19937;-81
2021/12/28 11:16:54;;;;;;;;;;;11.60;99.90;;;11.58;100.00;98736.06;4931713;29;19930;-81
2021/12/28 11:19:29;;;;;;;;;;;11.50;99.90;;;11.64;100.00;98729.63;4929945;29;19934;-81
2021/12/28 11:22:00;;;;;;;;;;;11.50;99.90;;;11.69;100.00;98727.56;4930031;29;19935;-81
2021/12/28 11:24:36;;;;;;;;;;;11.60;99.90;;;11.61;100.00;98721.91;4931436;28;20027;-82
2021/12/28 11:27:04;;;;;;;;;;;11.60;99.90;;;11.63;100.00;98714.75;4918207;29;20033;-80
2021/12/28 11:29:51;;;;;;;;;;;11.60;99.90;;;11.76;100.00;98714.91;4935580;29;19941;-80
2021/12/28 11:32:20;;;;;;;;;;;11.60;99.90;;;11.77;100.00;98712.22;4949077;29;20429;-81
2021/12/28 11:34:47;;;;;;;;;;;11.60;99.90;;;11.87;100.00;98709.91;4935637;29;19930;-81